PWSweather.com
Personal Weather Stations
Station Observations
KCAELCAJ1
Rancho San Diego, El Cajon, CA 92019

Rancho San DiegoEl Cajon, CA 92019

Lat: 32.75, Lon: -116.93

Elevation: 400

Station Type:

www.rsdweather.com

High Low Average
Temperature 77.0°F25.0°C 35.2°F1.8°C 52.5°F11.4°C
Dew Point 38.0°F3.3°C 24.7°F-4.1°C 29.2°F-1.6°C
Winds 5.8 mph 9.3 kmh Calm Calm 2.0 mph E3.2 kmh E
Wind Gusts 7.6 mph12.2 kmh -- 2.0 mph3.2 kmh
Humidity 71% 15% 49%
Pressure 30.16 in1021.3 mb 30.05 in1017.6 mb -
Precipitation 0.00 in0.0 mm - -
Hour Temp Dew Point Humidity Winds Wind Gusts Pressure Precip Precip Rate Daily Precip Total
12:00 AM 41.7°F5.4°C 30.8°F-0.7°C 65% Calm Calm -- 30.05 in1017.6 mb 0.00 in0.0 mm 0.00 in/hr0.0 mm/hr 0.00 in0.0 mm
12:15 AM 41.4°F5.2°C 30.5°F-0.8°C 65% Calm Calm -- 30.05 in1017.6 mb 0.00 in0.0 mm 0.00 in/hr0.0 mm/hr 0.00 in0.0 mm
12:30 AM 41.0°F5.0°C 30.2°F-1.0°C 65% Calm Calm -- 30.05 in1017.6 mb 0.00 in0.0 mm 0.00 in/hr0.0 mm/hr 0.00 in0.0 mm
12:45 AM 40.3°F4.6°C 29.8°F-1.2°C 66% Calm Calm -- 30.05 in1017.6 mb 0.00 in0.0 mm 0.00 in/hr0.0 mm/hr 0.00 in0.0 mm
01:00 AM 39.9°F4.4°C 29.5°F-1.4°C 66% Calm Calm -- 30.05 in1017.6 mb 0.00 in0.0 mm 0.00 in/hr0.0 mm/hr 0.00 in0.0 mm
01:15 AM 39.4°F4.1°C 29.0°F-1.7°C 66% Calm Calm -- 30.05 in1017.6 mb 0.00 in0.0 mm 0.00 in/hr0.0 mm/hr 0.00 in0.0 mm
01:30 AM 38.7°F3.7°C 28.7°F-1.8°C 67% Calm Calm -- 30.05 in1017.6 mb 0.00 in0.0 mm 0.00 in/hr0.0 mm/hr 0.00 in0.0 mm
01:45 AM 38.3°F3.5°C 28.3°F-2.1°C 67% Calm Calm -- 30.05 in1017.6 mb 0.00 in0.0 mm 0.00 in/hr0.0 mm/hr 0.00 in0.0 mm
02:00 AM 37.9°F3.3°C 28.0°F-2.2°C 67% Calm Calm -- 30.08 in1018.6 mb 0.00 in0.0 mm 0.00 in/hr0.0 mm/hr 0.00 in0.0 mm
02:15 AM 37.6°F3.1°C 28.0°F-2.2°C 68% Calm Calm -- 30.08 in1018.6 mb 0.00 in0.0 mm 0.00 in/hr0.0 mm/hr 0.00 in0.0 mm
02:30 AM 37.2°F2.9°C 28.0°F-2.2°C 69% Calm Calm -- 30.08 in1018.6 mb 0.00 in0.0 mm 0.00 in/hr0.0 mm/hr 0.00 in0.0 mm
02:45 AM 37.0°F2.8°C 27.8°F-2.3°C 69% Calm Calm -- 30.08 in1018.6 mb 0.00 in0.0 mm 0.00 in/hr0.0 mm/hr 0.00 in0.0 mm
03:00 AM 37.0°F2.8°C 27.8°F-2.3°C 69% Calm Calm -- 30.08 in1018.6 mb 0.00 in0.0 mm 0.00 in/hr0.0 mm/hr 0.00 in0.0 mm
03:15 AM 36.7°F2.6°C 27.5°F-2.5°C 69% Calm Calm -- 30.08 in1018.6 mb 0.00 in0.0 mm 0.00 in/hr0.0 mm/hr 0.00 in0.0 mm
03:30 AM 36.7°F2.6°C 27.5°F-2.5°C 69% Calm Calm -- 30.08 in1018.6 mb 0.00 in0.0 mm 0.00 in/hr0.0 mm/hr 0.00 in0.0 mm
03:45 AM 36.3°F2.4°C 27.1°F-2.7°C 69% Calm Calm -- 30.11 in1019.6 mb 0.00 in0.0 mm 0.00 in/hr0.0 mm/hr 0.00 in0.0 mm
04:00 AM 36.1°F2.3°C 27.0°F-2.8°C 69% Calm Calm -- 30.08 in1018.6 mb 0.00 in0.0 mm 0.00 in/hr0.0 mm/hr 0.00 in0.0 mm
04:15 AM 36.0°F2.2°C 27.1°F-2.7°C 70% Calm Calm -- 30.08 in1018.6 mb 0.00 in0.0 mm 0.00 in/hr0.0 mm/hr 0.00 in0.0 mm
04:30 AM 36.0°F2.2°C 27.1°F-2.7°C 70% Calm Calm -- 30.08 in1018.6 mb 0.00 in0.0 mm 0.00 in/hr0.0 mm/hr 0.00 in0.0 mm
04:45 AM 35.6°F2.0°C 26.8°F-2.9°C 70% Calm Calm -- 30.08 in1018.6 mb 0.00 in0.0 mm 0.00 in/hr0.0 mm/hr 0.00 in0.0 mm
05:00 AM 35.2°F1.8°C 26.5°F-3.1°C 70% Calm Calm -- 30.11 in1019.6 mb 0.00 in0.0 mm 0.00 in/hr0.0 mm/hr 0.00 in0.0 mm
05:15 AM 35.4°F1.9°C 26.6°F-3.0°C 70% Calm Calm -- 30.08 in1018.6 mb 0.00 in0.0 mm 0.00 in/hr0.0 mm/hr 0.00 in0.0 mm
05:30 AM 35.6°F2.0°C 26.8°F-2.9°C 70% Calm Calm -- 30.08 in1018.6 mb 0.00 in0.0 mm 0.00 in/hr0.0 mm/hr 0.00 in0.0 mm
05:45 AM 35.8°F2.1°C 27.0°F-2.8°C 70% Calm Calm -- 30.11 in1019.6 mb 0.00 in0.0 mm 0.00 in/hr0.0 mm/hr 0.00 in0.0 mm
06:00 AM 36.1°F2.3°C 27.7°F-2.4°C 71% Calm Calm -- 30.11 in1019.6 mb 0.00 in0.0 mm 0.00 in/hr0.0 mm/hr 0.00 in0.0 mm
06:15 AM 36.1°F2.3°C 27.3°F-2.6°C 70% Calm Calm -- 30.11 in1019.6 mb 0.00 in0.0 mm 0.00 in/hr0.0 mm/hr 0.00 in0.0 mm
06:30 AM 36.5°F2.5°C 27.7°F-2.4°C 70% Calm Calm -- 30.11 in1019.6 mb 0.00 in0.0 mm 0.00 in/hr0.0 mm/hr 0.00 in0.0 mm
06:45 AM 36.3°F2.4°C 27.5°F-2.5°C 70% Calm Calm -- 30.11 in1019.6 mb 0.00 in0.0 mm 0.00 in/hr0.0 mm/hr 0.00 in0.0 mm
07:01 AM 38.5°F3.6°C 29.2°F-1.6°C 69% Calm Calm -- 30.11 in1019.6 mb 0.00 in0.0 mm 0.00 in/hr0.0 mm/hr 0.00 in0.0 mm
07:15 AM 39.2°F4.0°C 29.2°F-1.6°C 67% 3.1 mph N5.0 kmh N 3.1 mph5.0 kmh 30.11 in1019.6 mb 0.00 in0.0 mm 0.00 in/hr0.0 mm/hr 0.00 in0.0 mm
07:30 AM 38.3°F3.5°C 28.0°F-2.2°C 66% Calm Calm -- 30.11 in1019.6 mb 0.00 in0.0 mm 0.00 in/hr0.0 mm/hr 0.00 in0.0 mm
07:45 AM 38.1°F3.4°C 27.8°F-2.3°C 66% Calm Calm -- 30.11 in1019.6 mb 0.00 in0.0 mm 0.00 in/hr0.0 mm/hr 0.00 in0.0 mm
08:01 AM 37.0°F2.8°C 26.8°F-2.9°C 66% 2.7 mph NE4.3 kmh NE 2.7 mph4.3 kmh 30.11 in1019.6 mb 0.00 in0.0 mm 0.00 in/hr0.0 mm/hr 0.00 in0.0 mm
08:15 AM 36.5°F2.5°C 26.2°F-3.2°C 66% Calm Calm -- 30.11 in1019.6 mb 0.00 in0.0 mm 0.00 in/hr0.0 mm/hr 0.00 in0.0 mm
08:30 AM 36.7°F2.6°C 26.8°F-2.9°C 67% Calm Calm -- 30.14 in1020.7 mb 0.00 in0.0 mm 0.00 in/hr0.0 mm/hr 0.00 in0.0 mm
08:45 AM 40.5°F4.7°C 29.3°F-1.5°C 64% Calm Calm 3.1 mph5.0 kmh 30.14 in1020.7 mb 0.00 in0.0 mm 0.00 in/hr0.0 mm/hr 0.00 in0.0 mm
09:01 AM 43.5°F6.4°C 28.9°F-1.7°C 56% 4.0 mph ENE6.4 kmh ENE 4.0 mph6.4 kmh 30.14 in1020.7 mb 0.00 in0.0 mm 0.00 in/hr0.0 mm/hr 0.00 in0.0 mm
09:15 AM 45.1°F7.3°C 30.8°F-0.7°C 57% 3.1 mph SW5.0 kmh SW 3.1 mph5.0 kmh 30.14 in1020.7 mb 0.00 in0.0 mm 0.00 in/hr0.0 mm/hr 0.00 in0.0 mm
09:30 AM 47.5°F8.6°C 31.7°F-0.2°C 54% 2.7 mph NE4.3 kmh NE 2.7 mph4.3 kmh 30.14 in1020.7 mb 0.00 in0.0 mm 0.00 in/hr0.0 mm/hr 0.00 in0.0 mm
09:45 AM 50.0°F10.0°C 32.6°F0.3°C 51% Calm Calm -- 30.16 in1021.3 mb 0.00 in0.0 mm 0.00 in/hr0.0 mm/hr 0.00 in0.0 mm
10:01 AM 53.1°F11.7°C 34.4°F1.3°C 49% 2.2 mph NE3.5 kmh NE 2.7 mph4.3 kmh 30.16 in1021.3 mb 0.00 in0.0 mm 0.00 in/hr0.0 mm/hr 0.00 in0.0 mm
10:16 AM 55.8°F13.2°C 35.3°F1.8°C 46% 2.7 mph ENE4.3 kmh ENE 2.7 mph4.3 kmh 30.16 in1021.3 mb 0.00 in0.0 mm 0.00 in/hr0.0 mm/hr 0.00 in0.0 mm
10:30 AM 57.7°F14.3°C 36.0°F2.2°C 44% 2.7 mph NE4.3 kmh NE 2.7 mph4.3 kmh 30.16 in1021.3 mb 0.00 in0.0 mm 0.00 in/hr0.0 mm/hr 0.00 in0.0 mm
10:45 AM 60.6°F15.9°C 36.8°F2.7°C 41% 3.6 mph NNE5.8 kmh NNE 3.6 mph5.8 kmh 30.16 in1021.3 mb 0.00 in0.0 mm 0.00 in/hr0.0 mm/hr 0.00 in0.0 mm
11:00 AM 63.5°F17.5°C 37.5°F3.1°C 38% 2.7 mph NE4.3 kmh NE 3.1 mph5.0 kmh 30.16 in1021.3 mb 0.00 in0.0 mm 0.00 in/hr0.0 mm/hr 0.00 in0.0 mm
11:15 AM 65.7°F18.7°C 37.3°F2.9°C 35% 2.2 mph E3.5 kmh E 2.2 mph3.5 kmh 30.16 in1021.3 mb 0.00 in0.0 mm 0.00 in/hr0.0 mm/hr 0.00 in0.0 mm
11:30 AM 68.2°F20.1°C 38.0°F3.3°C 33% 2.2 mph SE3.5 kmh SE 3.1 mph5.0 kmh 30.16 in1021.3 mb 0.00 in0.0 mm 0.00 in/hr0.0 mm/hr 0.00 in0.0 mm
11:45 AM 69.8°F21.0°C 36.1°F2.3°C 29% 2.7 mph NE4.3 kmh NE 3.6 mph5.8 kmh 30.14 in1020.7 mb 0.00 in0.0 mm 0.00 in/hr0.0 mm/hr 0.00 in0.0 mm
12:01 PM 71.1°F21.7°C 34.5°F1.4°C 26% 2.7 mph NE4.3 kmh NE 2.7 mph4.3 kmh 30.14 in1020.7 mb 0.00 in0.0 mm 0.00 in/hr0.0 mm/hr 0.00 in0.0 mm
12:15 PM 71.8°F22.1°C 33.1°F0.6°C 24% 3.1 mph SE5.0 kmh SE 3.6 mph5.8 kmh 30.14 in1020.7 mb 0.00 in0.0 mm 0.00 in/hr0.0 mm/hr 0.00 in0.0 mm
12:30 PM 74.5°F23.6°C 33.2°F0.7°C 22% 5.8 mph E9.3 kmh E 7.6 mph12.2 kmh 30.14 in1020.7 mb 0.00 in0.0 mm 0.00 in/hr0.0 mm/hr 0.00 in0.0 mm
12:45 PM 76.6°F24.8°C 33.8°F1.0°C 21% 4.0 mph NE6.4 kmh NE 4.0 mph6.4 kmh 30.11 in1019.6 mb 0.00 in0.0 mm 0.00 in/hr0.0 mm/hr 0.00 in0.0 mm
01:01 PM 75.9°F24.4°C 33.2°F0.7°C 21% 2.7 mph NE4.3 kmh NE 3.6 mph5.8 kmh 30.11 in1019.6 mb 0.00 in0.0 mm 0.00 in/hr0.0 mm/hr 0.00 in0.0 mm
01:15 PM 77.0°F25.0°C 32.9°F0.5°C 20% 3.1 mph 5.0 kmh 3.1 mph5.0 kmh 30.11 in1019.6 mb 0.00 in0.0 mm 0.00 in/hr0.0 mm/hr 0.00 in0.0 mm
01:30 PM 76.8°F24.9°C 30.1°F-1.1°C 18% 4.0 mph NE6.4 kmh NE 6.3 mph10.1 kmh 30.11 in1019.6 mb 0.00 in0.0 mm 0.00 in/hr0.0 mm/hr 0.00 in0.0 mm
01:45 PM 76.6°F24.8°C 30.0°F-1.1°C 18% 3.6 mph NE5.8 kmh NE 4.0 mph6.4 kmh 30.11 in1019.6 mb 0.00 in0.0 mm 0.00 in/hr0.0 mm/hr 0.00 in0.0 mm
02:01 PM 75.9°F24.4°C 25.0°F-3.9°C 15% 4.9 mph ENE7.9 kmh ENE 4.9 mph7.9 kmh 30.11 in1019.6 mb 0.00 in0.0 mm 0.00 in/hr0.0 mm/hr 0.00 in0.0 mm
02:15 PM 75.9°F24.4°C 25.0°F-3.9°C 15% 5.4 mph NE8.7 kmh NE 5.4 mph8.7 kmh 30.08 in1018.6 mb 0.00 in0.0 mm 0.00 in/hr0.0 mm/hr 0.00 in0.0 mm
02:30 PM 76.6°F24.8°C 25.6°F-3.6°C 15% 4.0 mph NNE6.4 kmh NNE 4.0 mph6.4 kmh 30.08 in1018.6 mb 0.00 in0.0 mm 0.00 in/hr0.0 mm/hr 0.00 in0.0 mm
02:45 PM 77.0°F25.0°C 25.9°F-3.4°C 15% 4.9 mph N7.9 kmh N 4.9 mph7.9 kmh 30.08 in1018.6 mb 0.00 in0.0 mm 0.00 in/hr0.0 mm/hr 0.00 in0.0 mm
03:01 PM 76.5°F24.7°C 25.4°F-3.7°C 15% 4.0 mph NE6.4 kmh NE 4.9 mph7.9 kmh 30.08 in1018.6 mb 0.00 in0.0 mm 0.00 in/hr0.0 mm/hr 0.00 in0.0 mm
03:15 PM 76.5°F24.7°C 25.4°F-3.7°C 15% 4.0 mph NE6.4 kmh NE 4.0 mph6.4 kmh 30.08 in1018.6 mb 0.00 in0.0 mm 0.00 in/hr0.0 mm/hr 0.00 in0.0 mm
03:30 PM 76.6°F24.8°C 25.6°F-3.6°C 15% 3.6 mph E5.8 kmh E 3.6 mph5.8 kmh 30.08 in1018.6 mb 0.00 in0.0 mm 0.00 in/hr0.0 mm/hr 0.00 in0.0 mm
03:45 PM 76.6°F24.8°C 25.6°F-3.6°C 15% 3.6 mph NE5.8 kmh NE 4.9 mph7.9 kmh 30.08 in1018.6 mb 0.00 in0.0 mm 0.00 in/hr0.0 mm/hr 0.00 in0.0 mm
04:00 PM 75.6°F24.2°C 24.7°F-4.1°C 15% 3.6 mph NE5.8 kmh NE 4.0 mph6.4 kmh 30.08 in1018.6 mb 0.00 in0.0 mm 0.00 in/hr0.0 mm/hr 0.00 in0.0 mm
04:15 PM 74.8°F23.8°C 25.7°F-3.5°C 16% 2.7 mph NE4.3 kmh NE 3.1 mph5.0 kmh 30.08 in1018.6 mb 0.00 in0.0 mm 0.00 in/hr0.0 mm/hr 0.00 in0.0 mm
04:30 PM 73.9°F23.3°C 25.0°F-3.9°C 16% 4.0 mph NE6.4 kmh NE 4.0 mph6.4 kmh 30.08 in1018.6 mb 0.00 in0.0 mm 0.00 in/hr0.0 mm/hr 0.00 in0.0 mm
04:45 PM 73.4°F23.0°C 24.5°F-4.2°C 16% 2.2 mph NE3.5 kmh NE 3.6 mph5.8 kmh 30.08 in1018.6 mb 0.00 in0.0 mm 0.00 in/hr0.0 mm/hr 0.00 in0.0 mm
05:15 PM 71.6°F22.0°C 23.1°F-4.9°C 16% 3.1 mph NE5.0 kmh NE 4.0 mph6.4 kmh 30.08 in1018.6 mb 0.00 in0.0 mm 0.00 in/hr0.0 mm/hr 0.00 in0.0 mm
05:30 PM 70.2°F21.2°C 23.4°F-4.8°C 17% Calm Calm 3.1 mph5.0 kmh 30.08 in1018.6 mb 0.00 in0.0 mm 0.00 in/hr0.0 mm/hr 0.00 in0.0 mm
05:45 PM 68.5°F20.3°C 22.0°F-5.6°C 17% 3.6 mph S5.8 kmh S 5.4 mph8.7 kmh 30.08 in1018.6 mb 0.00 in0.0 mm 0.00 in/hr0.0 mm/hr 0.00 in0.0 mm
06:15 PM 65.1°F18.4°C 20.6°F-6.3°C 18% 2.7 mph SSE4.3 kmh SSE 3.1 mph5.0 kmh 30.11 in1019.6 mb 0.00 in0.0 mm 0.00 in/hr0.0 mm/hr 0.00 in0.0 mm
06:30 PM 63.9°F17.7°C 19.6°F-6.9°C 18% 3.1 mph ESE5.0 kmh ESE 4.0 mph6.4 kmh 30.08 in1018.6 mb 0.00 in0.0 mm 0.00 in/hr0.0 mm/hr 0.00 in0.0 mm
06:45 PM 63.3°F17.4°C 19.1°F-7.2°C 18% 3.6 mph ESE5.8 kmh ESE 5.8 mph9.3 kmh 30.11 in1019.6 mb 0.00 in0.0 mm 0.00 in/hr0.0 mm/hr 0.00 in0.0 mm
07:00 PM 63.1°F17.3°C 19.0°F-7.2°C 18% 5.8 mph SE9.3 kmh SE 5.8 mph9.3 kmh 30.11 in1019.6 mb 0.00 in0.0 mm 0.00 in/hr0.0 mm/hr 0.00 in0.0 mm
07:15 PM 62.6°F17.0°C 18.5°F-7.5°C 18% 3.1 mph SE5.0 kmh SE 3.1 mph5.0 kmh 30.11 in1019.6 mb 0.00 in0.0 mm 0.00 in/hr0.0 mm/hr 0.00 in0.0 mm
07:30 PM 61.7°F16.5°C 19.1°F-7.2°C 19% 2.7 mph SE4.3 kmh SE 3.6 mph5.8 kmh 30.11 in1019.6 mb 0.00 in0.0 mm 0.00 in/hr0.0 mm/hr 0.00 in0.0 mm
07:45 PM 60.8°F16.0°C 18.3°F-7.6°C 19% 3.1 mph SE5.0 kmh SE 3.1 mph5.0 kmh 30.11 in1019.6 mb 0.00 in0.0 mm 0.00 in/hr0.0 mm/hr 0.00 in0.0 mm
08:00 PM 59.7°F15.4°C 17.4°F-8.1°C 19% 4.0 mph SE6.4 kmh SE 4.0 mph6.4 kmh 30.11 in1019.6 mb 0.00 in0.0 mm 0.00 in/hr0.0 mm/hr 0.00 in0.0 mm
08:15 PM 59.4°F15.2°C 17.1°F-8.3°C 19% 4.0 mph SSE6.4 kmh SSE 4.0 mph6.4 kmh 30.11 in1019.6 mb 0.00 in0.0 mm 0.00 in/hr0.0 mm/hr 0.00 in0.0 mm
08:30 PM 59.7°F15.4°C 17.4°F-8.1°C 19% Calm Calm 3.1 mph5.0 kmh 30.11 in1019.6 mb 0.00 in0.0 mm 0.00 in/hr0.0 mm/hr 0.00 in0.0 mm
08:45 PM 58.8°F14.9°C 16.7°F-8.5°C 19% Calm Calm -- 30.11 in1019.6 mb 0.00 in0.0 mm 0.00 in/hr0.0 mm/hr 0.00 in0.0 mm
09:00 PM 56.3°F13.5°C 15.8°F-9.0°C 20% Calm Calm -- 30.11 in1019.6 mb 0.00 in0.0 mm 0.00 in/hr0.0 mm/hr 0.00 in0.0 mm
09:15 PM 54.1°F12.3°C 14.0°F-10.0°C 20% Calm Calm -- 30.14 in1020.7 mb 0.00 in0.0 mm 0.00 in/hr0.0 mm/hr 0.00 in0.0 mm
09:30 PM 52.3°F11.3°C 13.6°F-10.2°C 21% Calm Calm -- 30.14 in1020.7 mb 0.00 in0.0 mm 0.00 in/hr0.0 mm/hr 0.00 in0.0 mm
09:45 PM 50.7°F10.4°C 12.2°F-11.0°C 21% Calm Calm -- 30.14 in1020.7 mb 0.00 in0.0 mm 0.00 in/hr0.0 mm/hr 0.00 in0.0 mm
10:00 PM 49.1°F9.5°C 10.9°F-11.7°C 21% 2.2 mph NE3.5 kmh NE 2.2 mph3.5 kmh 30.14 in1020.7 mb 0.00 in0.0 mm 0.00 in/hr0.0 mm/hr 0.00 in0.0 mm
10:15 PM 48.0°F8.9°C 11.0°F-11.7°C 22% 2.2 mph NNE3.5 kmh NNE 2.7 mph4.3 kmh 30.14 in1020.7 mb 0.00 in0.0 mm 0.00 in/hr0.0 mm/hr 0.00 in0.0 mm
10:30 PM 47.1°F8.4°C 12.2°F-11.0°C 24% 2.2 mph NNE3.5 kmh NNE 2.2 mph3.5 kmh 30.14 in1020.7 mb 0.00 in0.0 mm 0.00 in/hr0.0 mm/hr 0.00 in0.0 mm
10:45 PM 46.6°F8.1°C 11.7°F-11.3°C 24% Calm Calm -- 30.14 in1020.7 mb 0.00 in0.0 mm 0.00 in/hr0.0 mm/hr 0.00 in0.0 mm
11:00 PM 46.2°F7.9°C 14.1°F-9.9°C 27% Calm Calm -- 30.14 in1020.7 mb 0.00 in0.0 mm 0.00 in/hr0.0 mm/hr 0.00 in0.0 mm
11:15 PM 46.2°F7.9°C 14.1°F-9.9°C 27% Calm Calm -- 30.14 in1020.7 mb 0.00 in0.0 mm 0.00 in/hr0.0 mm/hr 0.00 in0.0 mm
11:30 PM 46.8°F8.2°C 14.6°F-9.7°C 27% Calm Calm 2.7 mph4.3 kmh 30.14 in1020.7 mb 0.00 in0.0 mm 0.00 in/hr0.0 mm/hr 0.00 in0.0 mm
11:45 PM 46.6°F8.1°C 14.4°F-9.8°C 27% 2.2 mph NNE3.5 kmh NNE 2.2 mph3.5 kmh 30.14 in1020.7 mb 0.00 in0.0 mm 0.00 in/hr0.0 mm/hr 0.00 in0.0 mm